Buchanan Dam, Texas
Current Conditions -  °F | °C
As of 5:53 AM on Sunday 21 Dec 2014 (Local Time) from KBMQ Reporting Station
Overcast Overcast  
Wind Chill: 48°   Ceiling: 1600
Heat Index: 48°   Visibility: 9mi
Dew Point: 43°   Wind: 0mph
Humidity: 83%   Direction: NA
Pressure: 30.1"   Gusts: NA
Location:  30.75°N, 98.42°W
Report Text: KBMQ 211153Z AUTO 00000KT 9SM OVC016 09/06 A3010 RMK AO2 SLP189 T00890061 10089 20083 56013
Loading
Personal Weather Stations






























Interactive Weather Map New forecast layout! Learn more

10-Day Weather Forecast

Advertisements
Track Severe Weather on mobile